Time;durP1;ratioP1;P1;durP2;ratioP2;P2;SDS_P1;SDS_P2;PMS_P1;PMS_P2;Temp;Humidity;BMP_temperature;BMP_pressure;BME280_temperature;BME280_humidity;BME280_pressure;Samples;Min_cycle;Max_cycle;Signal;HPM_P1;HPM_P2
2022/01/10 00:00:15;;;;;;;3.40;2.70;;;;;;;4.58;73.18;94875.59;5022824;28;20229;-84
2022/01/10 00:02:44;;;;;;;4.43;2.80;;;;;;;4.60;73.10;94886.44;5023256;28;20222;-84
2022/01/10 00:05:12;;;;;;;2.60;2.40;;;;;;;4.60;73.50;94886.44;5024059;28;20218;-84
2022/01/10 00:07:39;;;;;;;3.53;2.50;;;;;;;4.60;73.09;94879.56;5024137;28;20210;-84
2022/01/10 00:10:07;;;;;;;2.73;2.53;;;;;;;4.62;73.05;94876.88;5023227;28;20288;-84
2022/01/10 00:12:34;;;;;;;3.57;2.60;;;;;;;4.62;73.10;94884.53;5023885;28;20215;-84
2022/01/10 00:15:00;;;;;;;2.53;2.33;;;;;;;4.62;72.94;94882.75;5023527;28;20210;-84
2022/01/10 00:17:27;;;;;;;3.17;2.63;;;;;;;4.64;73.22;94877.47;5023736;28;20195;-84
2022/01/10 00:19:55;;;;;;;3.00;2.47;;;;;;;4.60;73.21;94876.22;5022994;28;20234;-84
2022/01/10 00:22:23;;;;;;;3.53;2.67;;;;;;;4.60;72.93;94882.13;5023271;28;20238;-84
2022/01/10 00:24:49;;;;;;;3.93;2.77;;;;;;;4.53;73.71;94882.91;5022875;28;20222;-84
2022/01/10 00:27:16;;;;;;;3.03;2.73;;;;;;;4.50;73.91;94889.91;5023843;28;20206;-85
2022/01/10 00:29:42;;;;;;;3.73;2.80;;;;;;;4.52;73.60;94892.28;5022700;28;20237;-84
2022/01/10 00:32:09;;;;;;;3.97;2.80;;;;;;;4.54;73.54;94887.03;5022707;28;20229;-84
2022/01/10 00:34:35;;;;;;;3.97;2.77;;;;;;;4.58;73.27;94890.88;5022996;28;20198;-84
2022/01/10 00:37:03;;;;;;;4.30;2.80;;;;;;;4.49;73.63;94892.59;5023175;28;20582;-85
2022/01/10 00:39:30;;;;;;;3.33;2.63;;;;;;;4.46;74.15;94886.06;5022068;28;20605;-84
2022/01/10 00:41:57;;;;;;;3.37;2.93;;;;;;;4.50;73.82;94887.34;5022563;28;20230;-84
2022/01/10 00:44:26;;;;;;;3.63;2.87;;;;;;;4.55;73.73;94886.09;5023744;28;20206;-84
2022/01/10 00:46:52;;;;;;;3.90;3.10;;;;;;;4.58;73.73;94881.47;5022854;28;20262;-84
2022/01/10 00:49:19;;;;;;;4.07;3.00;;;;;;;4.58;73.50;94880.69;5022701;28;20217;-84
2022/01/10 00:51:46;;;;;;;4.47;3.17;;;;;;;4.55;73.44;94889.44;5022812;28;20231;-84
2022/01/10 00:54:13;;;;;;;4.83;3.37;;;;;;;4.51;73.20;94883.84;5022579;28;20222;-84
2022/01/10 00:56:40;;;;;;;4.30;3.53;;;;;;;4.46;73.96;94880.97;5021254;28;20195;-84
2022/01/10 00:59:06;;;;;;;4.70;3.30;;;;;;;4.44;73.65;94887.16;5021758;28;20199;-84
2022/01/10 01:01:33;;;;;;;5.03;3.53;;;;;;;4.40;74.22;94893.56;5019673;28;20230;-84
2022/01/10 01:03:59;;;;;;;4.27;3.00;;;;;;;4.36;74.11;94898.16;5021376;28;20209;-84
2022/01/10 01:06:26;;;;;;;3.80;3.30;;;;;;;4.39;74.13;94899.59;5020970;28;20234;-84
2022/01/10 01:08:57;;;;;;;4.17;3.20;;;;;;;4.39;74.52;94902.16;5020690;28;20632;-84
2022/01/10 01:11:51;;;;;;;3.33;2.97;;;;;;;4.37;74.15;94904.06;5019676;28;20231;-84
2022/01/10 01:14:25;;;;;;;4.67;3.17;;;;;;;4.38;74.58;94906.44;5020729;28;20253;-84
2022/01/10 01:17:09;;;;;;;3.67;3.20;;;;;;;4.39;74.15;94907.25;5020700;28;20555;-84
2022/01/10 01:20:07;;;;;;;4.70;3.50;;;;;;;4.41;74.43;94918.09;5021821;28;20242;-84
2022/01/10 01:25:18;;;;;;;4.23;3.13;;;;;;;4.41;73.83;94918.09;5022111;28;20228;-84
2022/01/10 01:27:49;;;;;;;4.03;2.90;;;;;;;4.40;74.33;94924.13;5022405;28;20210;-84
2022/01/10 01:30:15;;;;;;;4.13;3.10;;;;;;;4.38;74.49;94929.38;5022292;28;20237;-84
2022/01/10 01:32:42;;;;;;;5.73;3.33;;;;;;;4.39;74.23;94930.97;5021816;28;20245;-84
2022/01/10 01:35:09;;;;;;;4.13;3.00;;;;;;;4.31;74.57;94945.44;5022077;28;20195;-83
2022/01/10 01:37:37;;;;;;;4.07;3.20;;;;;;;4.30;74.91;94943.84;5022428;28;20274;-84
2022/01/10 01:40:06;;;;;;;4.67;3.13;;;;;;;4.29;75.07;94942.22;5021742;28;20629;-84
2022/01/10 01:42:36;;;;;;;4.43;3.03;;;;;;;4.36;74.39;94943.22;5021006;28;20223;-85
2022/01/10 01:45:05;;;;;;;4.67;3.10;;;;;;;4.38;74.44;94951.53;5020933;28;20232;-84
2022/01/10 01:47:32;;;;;;;4.00;3.00;;;;;;;4.38;74.52;94952.31;5019873;28;20257;-84
2022/01/10 01:49:59;;;;;;;6.83;3.40;;;;;;;4.36;74.54;94953.41;5019534;28;20237;-84
2022/01/10 01:52:26;;;;;;;5.13;3.43;;;;;;;4.36;74.48;94954.22;5020540;28;20307;-84
2022/01/10 01:54:53;;;;;;;3.57;3.17;;;;;;;4.37;74.97;94960.13;5020171;28;20198;-84
2022/01/10 01:57:20;;;;;;;3.67;3.23;;;;;;;4.39;74.53;94960.75;5020246;28;20199;-84
2022/01/10 01:59:47;;;;;;;5.13;3.30;;;;;;;4.41;74.53;94969.06;5002258;28;20227;-84
2022/01/10 02:02:15;;;;;;;4.87;3.93;;;;;;;4.42;74.54;94976.56;5019809;28;20230;-84
2022/01/10 02:04:41;;;;;;;4.80;3.83;;;;;;;4.44;74.78;94981.47;5019896;28;20701;-84
2022/01/10 02:07:08;;;;;;;4.00;3.47;;;;;;;4.45;74.68;94983.06;5019090;28;20199;-84
2022/01/10 02:09:34;;;;;;;3.83;3.03;;;;;;;4.45;74.42;94983.84;5019292;28;20234;-84
2022/01/10 02:12:01;;;;;;;4.27;3.20;;;;;;;4.47;74.33;94983.72;5019024;28;20219;-84
2022/01/10 02:14:28;;;;;;;4.17;3.13;;;;;;;4.47;74.73;94984.50;5018575;28;20194;-84
2022/01/10 02:16:56;;;;;;;3.30;3.00;;;;;;;4.49;74.29;94986.91;5018559;28;20202;-83
2022/01/10 02:19:25;;;;;;;4.13;2.90;;;;;;;4.50;74.41;94988.50;5017840;28;20198;-84
2022/01/10 02:21:53;;;;;;;3.50;3.20;;;;;;;4.50;74.63;94996.16;5017089;28;20649;-84
2022/01/10 02:24:20;;;;;;;3.70;3.07;;;;;;;4.50;74.38;95002.06;5018377;28;20214;-84
2022/01/10 02:26:48;;;;;;;4.37;3.27;;;;;;;4.54;74.36;94997.44;5017896;28;20223;-84
2022/01/10 02:29:14;;;;;;;5.13;3.03;;;;;;;4.55;74.38;94993.16;5017696;28;20199;-84
2022/01/10 02:31:41;;;;;;;3.73;3.10;;;;;;;4.52;73.90;94989.16;5017228;28;20222;-84
2022/01/10 02:34:08;;;;;;;3.50;3.07;;;;;;;4.52;73.90;95007.00;5018266;28;20203;-84
2022/01/10 02:36:34;;;;;;;3.43;3.13;;;;;;;4.49;74.16;95005.56;5017172;28;20201;-83
2022/01/10 02:39:07;;;;;;;4.77;3.17;;;;;;;4.46;73.90;95002.50;5017490;28;20203;-84
2022/01/10 02:41:35;;;;;;;4.23;2.80;;;;;;;4.45;74.40;95011.09;5016850;28;20243;-83
2022/01/10 02:44:04;;;;;;;3.43;3.03;;;;;;;4.42;74.15;95016.53;5017882;28;20221;-83
2022/01/10 02:46:32;;;;;;;4.17;3.10;;;;;;;4.41;74.19;95020.03;5017081;28;20756;-84
2022/01/10 02:48:59;;;;;;;3.73;3.33;;;;;;;4.41;74.33;95022.56;5017652;28;20230;-84
2022/01/10 02:51:25;;;;;;;3.60;3.30;;;;;;;4.41;74.27;95030.22;5016547;28;20775;-84
2022/01/10 02:53:52;;;;;;;3.63;3.10;;;;;;;4.40;74.32;95037.06;5018101;28;20206;-83
2022/01/10 02:56:20;;;;;;;4.53;3.43;;;;;;;4.34;74.69;95037.66;5017499;28;20194;-84
2022/01/10 02:58:46;;;;;;;3.77;2.97;;;;;;;4.31;75.05;95035.41;5016510;28;20199;-84
2022/01/10 03:01:14;;;;;;;3.93;3.30;;;;;;;4.33;74.82;95036.06;5016146;28;20238;-84
2022/01/10 03:03:40;;;;;;;3.33;3.03;;;;;;;4.37;75.09;95044.22;5017573;28;20249;-83
2022/01/10 03:06:07;;;;;;;3.40;3.10;;;;;;;4.36;75.05;95043.41;5016611;28;20233;-83
2022/01/10 03:08:34;;;;;;;3.83;3.30;;;;;;;4.38;75.10;95046.59;5017018;28;20245;-84
2022/01/10 03:11:00;;;;;;;4.93;3.33;;;;;;;4.40;74.66;95049.00;5016583;28;20227;-84
2022/01/10 03:13:28;;;;;;;4.10;3.10;;;;;;;4.46;75.03;95043.28;5018152;28;20285;-84
2022/01/10 03:15:54;;;;;;;3.30;2.90;;;;;;;4.47;74.54;95050.78;5018813;28;20620;-84
2022/01/10 03:18:21;;;;;;;3.43;3.13;;;;;;;4.49;74.60;95050.63;5018342;28;20692;-84
2022/01/10 03:20:47;;;;;;;4.30;3.60;;;;;;;4.45;74.59;95051.88;5017575;28;20234;-83
2022/01/10 03:23:14;;;;;;;4.33;3.10;;;;;;;4.45;74.88;95065.41;5018263;28;20203;-84
2022/01/10 03:25:41;;;;;;;4.17;2.70;;;;;;;4.47;74.85;95068.63;5020219;28;20215;-84
2022/01/10 03:28:10;;;;;;;3.10;2.80;;;;;;;4.49;74.67;95068.47;5022758;28;20201;-83
2022/01/10 03:30:38;;;;;;;3.30;2.90;;;;;;;4.49;74.32;95071.81;5021979;28;20239;-84
2022/01/10 03:33:05;;;;;;;4.20;3.20;;;;;;;4.48;74.64;95075.31;5021486;28;20713;-83
2022/01/10 03:35:31;;;;;;;3.30;3.07;;;;;;;4.49;74.66;95082.00;5022252;28;20199;-84
2022/01/10 03:37:58;;;;;;;4.07;3.00;;;;;;;4.49;74.46;95073.56;5021925;28;20203;-84
2022/01/10 03:40:24;;;;;;;5.57;3.10;;;;;;;4.49;74.42;95084.56;5022057;28;20625;-84
2022/01/10 03:42:51;;;;;;;5.53;3.20;;;;;;;4.45;74.54;95080.72;5033592;28;20277;-84
2022/01/10 03:45:17;;;;;;;3.73;2.90;;;;;;;4.44;74.37;95076.56;5030069;28;20206;-84
2022/01/10 03:47:45;;;;;;;4.13;3.10;;;;;;;4.44;74.40;95085.97;5024618;28;20199;-84
2022/01/10 03:50:12;;;;;;;4.67;3.20;;;;;;;4.43;74.44;95081.81;5023960;28;20729;-84
2022/01/10 03:52:38;;;;;;;3.33;2.97;;;;;;;4.42;74.25;95087.88;5024258;28;20225;-85
2022/01/10 03:55:06;;;;;;;3.33;3.00;;;;;;;4.38;74.53;95081.47;5023951;28;20384;-84
2022/01/10 03:57:32;;;;;;;5.00;3.40;;;;;;;4.37;74.24;95088.34;5023794;28;20262;-84
2022/01/10 03:59:58;;;;;;;3.50;3.10;;;;;;;4.34;74.87;95087.81;5023333;28;20276;-84
2022/01/10 04:02:28;;;;;;;3.37;2.93;;;;;;;4.31;74.97;95095.75;5023109;28;20231;-84
2022/01/10 04:04:56;;;;;;;3.90;3.20;;;;;;;4.34;75.09;95105.66;5024117;28;20261;-85
2022/01/10 04:07:22;;;;;;;3.53;3.20;;;;;;;4.32;74.98;95105.00;5023002;28;20218;-84
2022/01/10 04:09:48;;;;;;;3.90;3.10;;;;;;;4.32;74.82;95108.34;5021359;28;20242;-84
2022/01/10 04:12:15;;;;;;;3.60;3.30;;;;;;;4.32;74.92;95105.81;5021634;28;20222;-84
2022/01/10 04:14:41;;;;;;;3.50;3.00;;;;;;;4.30;75.21;95096.72;5022571;28;20207;-84
2022/01/10 04:17:08;;;;;;;4.17;3.10;;;;;;;4.21;76.08;95110.38;5021673;28;20580;-84
2022/01/10 04:19:34;;;;;;;4.40;3.10;;;;;;;4.26;75.50;95111.50;5020997;28;20238;-84
2022/01/10 04:22:03;;;;;;;3.43;3.00;;;;;;;4.29;75.71;95115.50;5020204;28;20235;-84
2022/01/10 04:24:30;;;;;;;4.27;3.23;;;;;;;4.30;75.57;95120.44;5002070;28;20230;-84
2022/01/10 04:26:56;;;;;;;4.07;3.33;;;;;;;4.26;76.12;95129.31;5001890;28;20231;-84
2022/01/10 04:29:23;;;;;;;4.43;3.33;;;;;;;4.17;76.17;95127.69;5020206;28;20195;-83
2022/01/10 04:31:49;;;;;;;4.77;3.20;;;;;;;4.16;76.58;95128.63;5020626;28;20218;-84
2022/01/10 04:34:16;;;;;;;3.53;3.23;;;;;;;4.15;76.76;95132.94;5021051;28;20214;-84
2022/01/10 04:36:43;;;;;;;4.50;3.63;;;;;;;4.16;76.51;95131.97;5020615;28;20230;-84
2022/01/10 04:39:11;;;;;;;4.80;3.60;;;;;;;4.22;76.17;95140.00;5020781;28;20289;-82
2022/01/10 04:41:39;;;;;;;4.80;3.50;;;;;;;4.24;76.57;95143.97;5021219;28;20574;-84
2022/01/10 04:44:06;;;;;;;4.53;3.50;;;;;;;4.27;76.06;95153.88;5021182;28;20195;-84
2022/01/10 04:46:33;;;;;;;6.37;4.23;;;;;;;4.20;76.23;95155.41;5019447;28;20256;-84
2022/01/10 04:49:01;;;;;;;6.03;4.17;;;;;;;4.23;76.29;95150.03;5009925;28;20210;-84
2022/01/10 04:51:29;;;;;;;4.50;3.70;;;;;;;4.22;76.65;95163.72;5020019;28;20230;-84
2022/01/10 04:53:56;;;;;;;4.93;3.77;;;;;;;4.25;76.20;95163.41;5021075;28;20191;-84
2022/01/10 04:56:23;;;;;;;4.67;3.90;;;;;;;4.25;76.33;95168.50;5021440;28;20236;-84
2022/01/10 04:58:52;;;;;;;4.47;4.07;;;;;;;4.27;76.32;95176.78;5020924;28;20261;-84
2022/01/10 05:01:19;;;;;;;7.07;4.80;;;;;;;4.23;76.76;95178.06;5019486;28;20241;-84
2022/01/10 05:03:45;;;;;;;4.70;4.00;;;;;;;4.19;77.00;95184.41;5020140;28;20570;-84
2022/01/10 05:06:12;;;;;;;5.00;4.20;;;;;;;4.24;76.58;95184.72;5020683;28;20223;-83
2022/01/10 05:08:38;;;;;;;5.03;4.27;;;;;;;4.28;76.52;95197.97;5021449;28;20203;-83
2022/01/10 05:11:05;;;;;;;4.47;3.90;;;;;;;4.29;76.84;95191.94;5019038;28;20277;-84
2022/01/10 05:13:34;;;;;;;4.87;4.10;;;;;;;4.30;76.95;95202.00;5020843;28;20198;-84
2022/01/10 05:16:00;;;;;;;5.10;4.17;;;;;;;4.34;76.69;95202.50;5020169;28;20294;-84
2022/01/10 05:18:27;;;;;;;6.87;5.00;;;;;;;4.34;76.31;95199.94;5020849;28;20209;-84
2022/01/10 05:20:53;;;;;;;7.23;5.00;;;;;;;4.35;76.39;95199.81;5018890;28;20451;-84
2022/01/10 05:23:20;;;;;;;5.47;4.80;;;;;;;4.34;76.53;95205.03;5020355;28;20199;-84
2022/01/10 05:25:47;;;;;;;6.00;4.67;;;;;;;4.31;76.70;95211.22;5020275;28;20203;-84
2022/01/10 05:28:17;;;;;;;5.77;5.17;;;;;;;4.28;76.67;95219.16;5021603;28;20232;-84
2022/01/10 05:30:46;;;;;;;7.10;5.40;;;;;;;4.27;76.84;95221.84;5020175;28;20256;-84
2022/01/10 05:33:13;;;;;;;5.13;4.60;;;;;;;4.29;77.10;95220.78;5021176;28;20203;-84
2022/01/10 05:35:40;;;;;;;6.57;5.40;;;;;;;4.27;76.71;95222.66;5020407;28;20270;-84
2022/01/10 05:38:07;;;;;;;7.50;5.33;;;;;;;4.31;76.55;95223.97;5021165;28;20202;-86
2022/01/10 05:40:34;;;;;;;7.20;5.40;;;;;;;4.27;77.23;95232.06;5019657;28;20223;-84
2022/01/10 05:43:00;;;;;;;5.90;5.30;;;;;;;4.28;77.13;95231.91;5020768;28;20582;-84
2022/01/10 05:45:27;;;;;;;5.87;5.37;;;;;;;4.28;76.94;95238.75;5019784;28;20238;-84
2022/01/10 05:47:55;;;;;;;8.73;6.87;;;;;;;4.24;77.49;95239.97;4997359;28;20703;-85
2022/01/10 05:50:32;;;;;;;7.07;5.43;;;;;;;4.26;77.55;95236.34;4997187;28;20513;-85
2022/01/10 05:52:59;;;;;;;7.43;5.97;;;;;;;4.26;77.70;95241.44;5005609;28;20223;-84
2022/01/10 05:55:26;;;;;;;5.90;5.30;;;;;;;4.29;77.28;95250.53;5003190;28;20219;-84
2022/01/10 05:57:52;;;;;;;7.50;5.73;;;;;;;4.31;76.93;95258.84;5017297;28;20206;-84
2022/01/10 06:00:19;;;;;;;7.30;5.70;;;;;;;4.31;77.22;95258.84;5016873;28;20296;-84
2022/01/10 06:02:45;;;;;;;5.90;5.30;;;;;;;4.31;77.49;95263.94;5017148;28;20234;-83
2022/01/10 06:05:13;;;;;;;7.33;6.33;;;;;;;4.25;77.50;95278.06;5017717;28;20207;-84
2022/01/10 06:07:41;;;;;;;6.87;5.83;;;;;;;4.27;77.99;95280.47;5018521;28;20242;-84
2022/01/10 06:10:08;;;;;;;7.80;6.20;;;;;;;4.27;78.34;95283.81;5021971;28;20258;-84
2022/01/10 06:12:34;;;;;;;7.07;6.20;;;;;;;4.27;78.08;95294.00;5019698;28;20223;-84
2022/01/10 06:15:01;;;;;;;7.53;6.03;;;;;;;4.14;80.01;95294.38;5020522;28;20861;-84
2022/01/10 06:17:28;;;;;;;7.70;5.83;;;;;;;4.00;81.13;95294.88;5018515;28;20202;-84
2022/01/10 06:19:54;;;;;;;8.20;6.60;;;;;;;4.00;80.77;95299.16;5018317;28;20308;-84
2022/01/10 06:22:22;;;;;;;7.77;6.13;;;;;;;3.95;81.25;95304.69;5018563;28;20234;-84
2022/01/10 06:24:49;;;;;;;7.93;6.33;;;;;;;3.95;81.94;95303.88;5020944;28;20203;-85
2022/01/10 06:27:15;;;;;;;7.50;6.70;;;;;;;3.99;82.53;95315.38;5019747;28;20571;-84
2022/01/10 06:32:20;;;;;;;7.37;6.60;;;;;;;3.89;83.40;95317.16;5089973;27;1336386;-84
2022/01/10 06:34:46;;;;;;;8.40;6.60;;;;;;;3.97;82.25;95322.38;5132159;28;20209;-84
2022/01/10 06:37:13;;;;;;;10.20;7.00;;;;;;;4.09;81.54;95329.66;5131713;28;20214;-83
2022/01/10 06:39:39;;;;;;;10.17;7.50;;;;;;;4.09;86.34;95334.75;5126354;27;20223;-83
2022/01/10 06:42:06;;;;;;;9.87;8.00;;;;;;;4.07;85.24;95336.63;5108152;28;20218;-83
2022/01/10 06:44:33;;;;;;;9.33;8.17;;;;;;;4.14;81.88;95336.88;5108181;28;20206;-83
2022/01/10 06:46:59;;;;;;;9.43;7.43;;;;;;;4.22;80.95;95348.91;5110927;28;20260;-84
2022/01/10 06:49:27;;;;;;;8.60;7.43;;;;;;;4.25;80.06;95354.50;5110168;28;20199;-83
2022/01/10 06:51:53;;;;;;;9.37;7.50;;;;;;;4.27;79.87;95351.81;5110199;28;20254;-83
2022/01/10 06:54:20;;;;;;;10.23;7.33;;;;;;;4.32;79.74;95358.09;5110379;28;20195;-83
2022/01/10 06:56:46;;;;;;;8.77;7.17;;;;;;;4.31;79.75;95360.78;5110219;28;20203;-83
2022/01/10 06:59:13;;;;;;;7.20;6.50;;;;;;;4.29;80.10;95370.31;5109144;28;20691;-82
2022/01/10 07:01:40;;;;;;;8.03;7.17;;;;;;;4.31;79.90;95365.88;5109818;28;20215;-83
2022/01/10 07:04:06;;;;;;;9.30;7.37;;;;;;;4.33;79.47;95375.00;5110449;28;20191;-83
2022/01/10 07:06:34;;;;;;;12.20;7.20;;;;;;;4.28;79.75;95377.16;5110333;28;20670;-81
2022/01/10 07:09:00;;;;;;;11.80;7.67;;;;;;;4.29;79.84;95385.59;5109698;28;20218;-82
2022/01/10 07:11:27;;;;;;;11.70;7.57;;;;;;;4.24;80.51;95387.75;5108735;28;20737;-83
2022/01/10 07:13:53;;;;;;;15.17;7.30;;;;;;;4.27;80.28;95393.38;5108954;28;20203;-83
2022/01/10 07:16:20;;;;;;;17.33;8.20;;;;;;;4.31;79.87;95391.34;5109686;28;20604;-83
2022/01/10 07:18:46;;;;;;;12.57;8.07;;;;;;;4.34;79.55;95393.63;5109056;28;20199;-81
2022/01/10 07:21:13;;;;;;;8.87;7.60;;;;;;;4.35;80.17;95402.88;5109274;28;20235;-83
2022/01/10 07:23:41;;;;;;;11.37;7.73;;;;;;;4.37;79.45;95404.34;5109542;28;20238;-83
2022/01/10 07:26:07;;;;;;;9.20;7.43;;;;;;;4.36;79.73;95410.38;5109281;28;20200;-83
2022/01/10 07:28:36;;;;;;;9.17;7.97;;;;;;;4.36;79.53;95409.59;5109695;28;20206;-82
2022/01/10 07:31:03;;;;;;;9.07;7.50;;;;;;;4.35;79.45;95418.97;5108239;28;20230;-84
2022/01/10 07:33:29;;;;;;;11.03;7.67;;;;;;;4.23;80.67;95426.97;5109296;28;20222;-84
2022/01/10 07:35:56;;;;;;;9.43;7.87;;;;;;;4.18;81.14;95439.31;5109302;28;20234;-84
2022/01/10 07:38:23;;;;;;;9.93;7.47;;;;;;;4.21;80.72;95434.75;5109633;28;20620;-84
2022/01/10 07:40:51;;;;;;;9.50;7.83;;;;;;;4.25;80.83;95442.88;5107613;28;20310;-83
2022/01/10 07:43:18;;;;;;;9.47;7.43;;;;;;;4.23;81.01;95445.59;5097520;28;20631;-83
2022/01/10 07:45:44;;;;;;;9.77;7.93;;;;;;;4.28;80.80;95455.34;5095508;28;20204;-84
2022/01/10 07:48:11;;;;;;;8.30;7.33;;;;;;;4.31;80.21;95455.06;5095872;28;20203;-84
2022/01/10 07:50:37;;;;;;;8.43;7.53;;;;;;;4.28;80.59;95461.25;5094725;28;20232;-83
2022/01/10 07:53:04;;;;;;;10.27;7.77;;;;;;;4.35;80.36;95466.59;5094919;28;20200;-85
2022/01/10 07:55:30;;;;;;;9.37;7.73;;;;;;;4.31;80.06;95470.34;5095526;28;20690;-84
2022/01/10 07:57:58;;;;;;;9.63;8.50;;;;;;;4.28;80.37;95480.84;5095622;28;20265;-84
2022/01/10 08:00:25;;;;;;;10.57;8.13;;;;;;;4.29;80.33;95484.97;5095381;28;20297;-84
2022/01/10 08:02:51;;;;;;;11.10;8.30;;;;;;;4.33;80.57;95487.13;5095300;28;20204;-84
2022/01/10 08:05:17;;;;;;;9.83;8.33;;;;;;;4.25;80.28;95484.47;5095578;28;20287;-85
2022/01/10 08:07:44;;;;;;;9.80;8.30;;;;;;;4.29;80.10;95485.78;5095601;28;20243;-85
2022/01/10 08:10:11;;;;;;;10.73;8.37;;;;;;;4.33;80.15;95491.41;5094486;28;20232;-84
2022/01/10 08:12:37;;;;;;;11.10;8.17;;;;;;;4.38;79.93;95494.34;5095560;28;20217;-83
2022/01/10 08:15:06;;;;;;;13.10;8.33;;;;;;;4.42;79.84;95500.78;5094324;28;20690;-84
2022/01/10 08:17:33;;;;;;;10.83;7.77;;;;;;;4.44;79.72;95501.41;5094010;28;20253;-84
2022/01/10 08:19:59;;;;;;;11.30;9.00;;;;;;;4.47;79.39;95512.13;5094156;28;20715;-85
2022/01/10 08:22:25;;;;;;;8.80;7.73;;;;;;;4.49;79.82;95501.81;5095186;28;20619;-84
2022/01/10 08:24:53;;;;;;;11.23;8.90;;;;;;;4.48;79.76;95516.28;5095206;28;20211;-84
2022/01/10 08:27:19;;;;;;;10.53;8.57;;;;;;;4.51;79.96;95520.31;5095670;28;20200;-85
2022/01/10 08:29:46;;;;;;;10.70;8.77;;;;;;;4.49;79.53;95522.19;5093641;28;20231;-85
2022/01/10 08:32:13;;;;;;;10.83;8.83;;;;;;;4.51;79.05;95527.97;5094112;28;20773;-84
2022/01/10 08:34:40;;;;;;;10.23;8.57;;;;;;;4.53;78.99;95530.38;5094742;28;20203;-85
2022/01/10 08:37:06;;;;;;;12.60;8.50;;;;;;;4.53;79.27;95536.28;5094521;28;20573;-85
2022/01/10 08:39:33;;;;;;;11.93;9.03;;;;;;;4.44;80.05;95535.34;5094051;28;20228;-85
2022/01/10 08:42:00;;;;;;;12.87;9.20;;;;;;;4.44;80.13;95534.56;5094613;28;20235;-85
2022/01/10 08:44:27;;;;;;;14.33;9.00;;;;;;;4.41;80.46;95533.13;5095251;28;20227;-85
2022/01/10 08:46:54;;;;;;;13.53;9.20;;;;;;;4.35;81.13;95541.31;5094429;28;20215;-84
2022/01/10 08:49:21;;;;;;;12.53;9.10;;;;;;;4.35;81.36;95554.06;5093437;28;20762;-84
2022/01/10 08:51:54;;;;;;;11.33;8.90;;;;;;;4.40;80.86;95559.53;5093435;28;20235;-85
2022/01/10 08:54:21;;;;;;;12.47;9.20;;;;;;;4.41;80.66;95562.91;5093822;28;20200;-84
2022/01/10 08:56:47;;;;;;;11.97;9.97;;;;;;;4.44;80.64;95573.59;5094381;28;20253;-85
2022/01/10 08:59:14;;;;;;;13.03;9.23;;;;;;;4.41;81.12;95576.44;5093589;28;20253;-85
2022/01/10 09:01:42;;;;;;;15.77;13.87;;;;;;;4.41;81.08;95573.91;5093860;28;20585;-85
2022/01/10 09:04:15;;;;;;;14.57;9.80;;;;;;;4.49;80.10;95579.09;5094112;28;20821;-84
2022/01/10 09:06:44;;;;;;;11.67;9.90;;;;;;;4.57;80.12;95583.50;5094391;28;20204;-84
2022/01/10 09:09:11;;;;;;;12.73;9.33;;;;;;;4.57;79.89;95578.41;5093451;28;20224;-84
2022/01/10 09:11:38;;;;;;;13.57;9.13;;;;;;;4.58;79.79;95580.00;5093045;28;20621;-82
2022/01/10 09:14:04;;;;;;;13.70;9.40;;;;;;;4.63;79.60;95594.88;5093484;28;20203;-82
2022/01/10 09:16:31;;;;;;;13.30;9.27;;;;;;;4.68;79.52;95592.69;5093270;28;20200;-83
2022/01/10 09:18:57;;;;;;;13.07;9.17;;;;;;;4.65;79.58;95603.19;5093550;28;20203;-84
2022/01/10 09:21:24;;;;;;;15.43;9.87;;;;;;;4.64;79.26;95604.94;5092589;28;20228;-84
2022/01/10 09:23:52;;;;;;;13.93;9.50;;;;;;;4.59;80.04;95607.13;5093322;28;20200;-84
2022/01/10 09:26:19;;;;;;;12.23;8.70;;;;;;;4.50;80.26;95608.72;5093513;28;20578;-84
2022/01/10 09:28:45;;;;;;;12.30;8.90;;;;;;;4.59;79.63;95611.41;5093359;28;20211;-84
2022/01/10 09:31:12;;;;;;;14.27;9.10;;;;;;;4.67;79.21;95622.50;5092057;28;20283;-85
2022/01/10 09:33:39;;;;;;;12.57;9.03;;;;;;;4.61;79.09;95622.28;5094151;28;20199;-85
2022/01/10 09:36:05;;;;;;;11.67;8.73;;;;;;;4.68;79.44;95626.66;5093341;28;20222;-84
2022/01/10 09:38:32;;;;;;;13.47;9.30;;;;;;;4.63;79.30;95630.56;5093517;28;20210;-84
2022/01/10 09:41:00;;;;;;;12.03;9.03;;;;;;;4.68;79.38;95636.88;5092680;28;20224;-83
2022/01/10 09:43:26;;;;;;;13.80;9.27;;;;;;;4.75;78.90;95634.56;5093481;28;20196;-84
2022/01/10 09:45:54;;;;;;;12.17;9.63;;;;;;;4.77;78.81;95635.25;5093936;28;20199;-84
2022/01/10 09:48:21;;;;;;;12.83;9.40;;;;;;;4.83;78.31;95639.75;5093623;28;20260;-85
2022/01/10 09:50:48;;;;;;;12.47;9.57;;;;;;;4.88;78.18;95644.44;5092558;28;20239;-84
2022/01/10 09:53:18;;;;;;;11.97;8.80;;;;;;;4.89;78.00;95646.06;5092754;28;20231;-83
2022/01/10 09:55:45;;;;;;;12.93;9.13;;;;;;;4.92;77.82;95653.44;5093164;28;20203;-84
2022/01/10 09:58:13;;;;;;;10.67;8.67;;;;;;;4.92;77.67;95656.78;5092931;28;20203;-85
2022/01/10 10:00:40;;;;;;;12.17;8.93;;;;;;;4.94;77.47;95660.00;5092069;28;20232;-85
2022/01/10 10:03:07;;;;;;;12.83;9.57;;;;;;;4.90;77.26;95661.22;5093103;28;20201;-84
2022/01/10 10:05:34;;;;;;;13.20;9.50;;;;;;;4.81;77.44;95667.19;5092550;28;20703;-84
2022/01/10 10:08:01;;;;;;;12.73;9.30;;;;;;;4.80;78.08;95656.16;5092948;28;20204;-85
2022/01/10 10:10:29;;;;;;;12.60;9.43;;;;;;;4.82;77.96;95661.09;5092746;28;20236;-85
2022/01/10 10:12:55;;;;;;;13.67;9.33;;;;;;;4.82;77.61;95668.75;5092493;28;20235;-84
2022/01/10 10:15:28;;;;;;;11.20;9.10;;;;;;;4.79;78.05;95662.22;5091983;28;20671;-83
2022/01/10 10:17:54;;;;;;;12.77;9.60;;;;;;;4.89;77.73;95669.81;5092394;28;20211;-84
2022/01/10 10:20:24;;;;;;;11.53;8.67;;;;;;;4.83;77.28;95671.16;5091668;28;20243;-85
2022/01/10 10:22:54;;;;;;;12.67;9.23;;;;;;;4.83;77.36;95678.81;5092376;28;20192;-82
2022/01/10 10:25:21;;;;;;;10.97;9.40;;;;;;;4.84;77.76;95672.78;5092194;28;20290;-84
2022/01/10 10:27:49;;;;;;;15.23;9.37;;;;;;;4.93;77.60;95675.44;5092768;28;20204;-84
2022/01/10 10:30:21;;;;;;;11.77;8.27;;;;;;;5.01;76.55;95678.91;5091878;28;20631;-84
2022/01/10 10:32:50;;;;;;;12.50;8.37;;;;;;;5.04;75.47;95690.56;5092522;28;20219;-84
2022/01/10 10:35:17;;;;;;;9.37;8.30;;;;;;;5.07;76.05;95693.66;5092921;28;20301;-85
2022/01/10 10:37:45;;;;;;;10.50;8.30;;;;;;;5.13;76.22;95698.22;5091806;28;20200;-85
2022/01/10 10:40:15;;;;;;;11.50;8.60;;;;;;;5.16;75.94;95700.50;5092179;28;20242;-84
2022/01/10 10:42:43;;;;;;;13.47;9.60;;;;;;;5.05;76.55;95702.38;5092098;28;20575;-84
2022/01/10 10:45:11;;;;;;;15.03;10.77;;;;;;;4.96;77.53;95708.34;5091954;28;20207;-82
2022/01/10 10:47:40;;;;;;;16.17;10.93;;;;;;;4.99;76.98;95703.78;5092134;28;20207;-85
2022/01/10 10:50:10;;;;;;;14.97;10.73;;;;;;;5.03;77.17;95704.28;5091951;28;20223;-84
2022/01/10 10:52:39;;;;;;;14.33;10.80;;;;;;;5.01;77.19;95712.06;5086447;28;20310;-85
2022/01/10 10:55:07;;;;;;;15.87;11.30;;;;;;;4.95;77.34;95711.84;5089743;28;20319;-85
2022/01/10 10:57:34;;;;;;;14.23;11.73;;;;;;;4.90;77.54;95721.66;5092005;28;20254;-84
2022/01/10 11:00:02;;;;;;;17.73;11.70;;;;;;;4.86;77.76;95726.22;5091298;28;20251;-85
2022/01/10 11:02:28;;;;;;;15.87;12.03;;;;;;;4.76;78.46;95728.00;5090623;28;20192;-85
2022/01/10 11:04:55;;;;;;;17.07;12.03;;;;;;;4.80;78.46;95732.69;5090864;28;20196;-86
2022/01/10 11:07:27;;;;;;;16.97;12.37;;;;;;;4.75;78.47;95731.47;5092095;28;20200;-84
2022/01/10 11:09:55;;;;;;;15.60;11.17;;;;;;;4.79;78.10;95741.28;5091733;28;20239;-85
2022/01/10 11:12:23;;;;;;;16.87;12.97;;;;;;;4.81;78.11;95739.38;5090745;28;20212;-84
2022/01/10 11:14:50;;;;;;;17.93;14.20;;;;;;;4.85;78.04;95745.81;5092695;28;20206;-84
2022/01/10 11:17:18;;;;;;;17.43;12.47;;;;;;;4.88;78.00;95752.38;5092979;28;20212;-84
2022/01/10 11:19:44;;;;;;;19.67;12.63;;;;;;;4.94;77.94;95756.16;5095369;28;20251;-84
2022/01/10 11:22:11;;;;;;;15.67;12.37;;;;;;;4.96;77.66;95764.47;5094520;28;20220;-85
2022/01/10 11:24:43;;;;;;;17.93;12.63;;;;;;;4.90;77.91;95763.25;5094517;28;20215;-86
2022/01/10 11:27:29;;;;;;;16.33;12.27;;;;;;;4.77;78.50;95762.75;5094006;28;20196;-84
2022/01/10 11:29:57;;;;;;;17.10;12.83;;;;;;;4.78;78.21;95765.19;5095305;28;20253;-85
2022/01/10 11:32:51;;;;;;;17.80;12.70;;;;;;;4.89;78.44;95768.50;5095845;28;20256;-86
2022/01/10 11:35:18;;;;;;;15.73;12.13;;;;;;;4.98;77.66;95771.06;5096675;28;20224;-84
2022/01/10 11:37:45;;;;;;;14.90;12.20;;;;;;;5.06;77.03;95773.69;5094393;28;20257;-85
2022/01/10 11:40:15;;;;;;;17.10;11.57;;;;;;;5.15;76.58;95775.44;5091744;28;20235;-86
2022/01/10 11:42:45;;;;;;;16.80;11.73;;;;;;;5.20;76.60;95767.34;5096172;28;20612;-86
2022/01/10 11:45:13;;;;;;;15.27;10.83;;;;;;;5.11;76.78;95770.75;5096452;28;20192;-85